Time;durP1;ratioP1;P1;durP2;ratioP2;P2;SDS_P1;SDS_P2;PMS_P1;PMS_P2;Temp;Humidity;BMP_temperature;BMP_pressure;BME280_temperature;BME280_humidity;BME280_pressure;Samples;Min_cycle;Max_cycle;Signal;HPM_P1;HPM_P2
2020/12/18 00:02:21;;;;;;;26.90;13.80;;;;;;;2.46;100.00;101395.56;4993524;28;20338;-68
2020/12/18 00:05:04;;;;;;;22.20;12.95;;;;;;;2.47;100.00;101399.06;4993964;28;20475;-68
2020/12/18 00:07:48;;;;;;;30.63;12.10;;;;;;;2.48;100.00;101404.22;4982861;28;20133;-68
2020/12/18 00:10:32;;;;;;;33.20;11.75;;;;;;;2.47;100.00;101413.06;4996526;28;20407;-68
2020/12/18 00:13:16;;;;;;;17.60;10.13;;;;;;;2.47;100.00;101418.31;4996506;28;20422;-67
2020/12/18 00:16:00;;;;;;;26.13;11.95;;;;;;;2.44;100.00;101423.72;4996055;28;20465;-68
2020/12/18 00:18:44;;;;;;;18.98;10.32;;;;;;;2.41;100.00;101418.59;4996426;28;20431;-68
2020/12/18 00:21:27;;;;;;;16.58;10.73;;;;;;;2.39;100.00;101415.16;4996954;28;20052;-68
2020/12/18 00:24:12;;;;;;;26.83;12.15;;;;;;;2.35;100.00;101416.22;4996146;28;20423;-68
2020/12/18 00:26:56;;;;;;;28.13;13.45;;;;;;;2.32;100.00;101419.00;4996969;28;20111;-68
2020/12/18 00:29:41;;;;;;;24.35;12.32;;;;;;;2.34;100.00;101417.13;4982524;28;20410;-68
2020/12/18 00:32:25;;;;;;;29.77;11.23;;;;;;;2.36;100.00;101414.47;4997035;28;20057;-68
2020/12/18 00:35:11;;;;;;;81.03;16.08;;;;;;;2.39;100.00;101414.31;4996877;28;20077;-68
2020/12/18 00:37:55;;;;;;;79.15;14.50;;;;;;;2.52;100.00;101413.72;4982507;28;20411;-68
2020/12/18 00:40:39;;;;;;;40.58;12.75;;;;;;;2.50;100.00;101411.16;4995620;28;20423;-68
2020/12/18 00:43:24;;;;;;;58.97;13.68;;;;;;;2.59;100.00;101418.66;4996950;28;20053;-67
2020/12/18 00:46:08;;;;;;;66.32;13.93;;;;;;;2.62;100.00;101407.16;4981791;28;20498;-67
2020/12/18 00:48:52;;;;;;;;;;;;;;;2.61;100.00;101411.53;4982211;28;20049;-67
2020/12/18 00:51:36;;;;;;;29.02;10.02;;;;;;;2.61;100.00;101402.81;4996812;28;19921;-67
2020/12/18 00:54:20;;;;;;;30.30;12.25;;;;;;;2.50;100.00;101398.00;4996584;28;20053;-67
2020/12/18 00:57:04;;;;;;;40.75;12.13;;;;;;;2.43;100.00;101400.97;4995392;28;20484;-66
2020/12/18 00:59:49;;;;;;;27.77;12.00;;;;;;;2.38;100.00;101402.91;4981801;28;20419;-67
2020/12/18 01:02:33;;;;;;;16.60;11.10;;;;;;;2.43;100.00;101411.50;4996355;28;20049;-67
2020/12/18 01:05:17;;;;;;;43.58;12.93;;;;;;;2.39;100.00;101406.41;4996480;28;20584;-67
2020/12/18 01:08:01;;;;;;;18.80;11.57;;;;;;;2.35;100.00;101410.94;4996250;28;20140;-67
2020/12/18 01:10:45;;;;;;;24.55;12.18;;;;;;;2.38;100.00;101413.44;4996175;28;20466;-67
2020/12/18 01:13:29;;;;;;;22.25;11.30;;;;;;;2.34;100.00;101405.75;4995464;28;20482;-67
2020/12/18 01:16:14;;;;;;;27.60;11.25;;;;;;;2.28;100.00;101409.50;4995718;28;20106;-67
2020/12/18 01:18:57;;;;;;;21.40;10.50;;;;;;;2.26;100.00;101419.22;4995287;28;20526;-67
2020/12/18 01:21:41;;;;;;;17.52;10.38;;;;;;;2.20;100.00;101422.13;4996299;28;20526;-68
2020/12/18 01:24:25;;;;;;;14.70;10.27;;;;;;;2.15;100.00;101428.47;4995151;28;20108;-67
2020/12/18 01:27:09;;;;;;;17.95;10.52;;;;;;;2.12;100.00;101431.25;4996088;28;20077;-67
2020/12/18 01:29:53;;;;;;;15.52;10.38;;;;;;;2.13;100.00;101430.31;4981358;28;20046;-68
2020/12/18 01:32:37;;;;;;;17.13;10.43;;;;;;;2.14;100.00;101421.50;4981161;28;20426;-68
2020/12/18 01:35:21;;;;;;;16.83;10.40;;;;;;;2.14;100.00;101425.00;4995757;28;20061;-68
2020/12/18 01:38:06;;;;;;;57.90;12.60;;;;;;;2.15;100.00;101428.47;4981480;28;20053;-68
2020/12/18 01:40:50;;;;;;;27.17;10.88;;;;;;;2.13;100.00;101428.56;4995742;28;20093;-67
2020/12/18 01:43:34;;;;;;;25.15;10.85;;;;;;;2.11;100.00;101419.88;4981107;28;20057;-68
2020/12/18 01:46:19;;;;;;;16.67;9.45;;;;;;;2.08;100.00;101430.50;4994867;28;20077;-67
2020/12/18 01:49:03;;;;;;;14.48;9.48;;;;;;;2.06;100.00;101426.25;4980881;28;20107;-67
2020/12/18 01:51:48;;;;;;;24.85;11.57;;;;;;;2.04;100.00;101425.44;4995450;28;20103;-68
2020/12/18 01:54:32;;;;;;;22.55;10.77;;;;;;;2.06;100.00;101434.16;4994275;28;20415;-68
2020/12/18 01:57:17;;;;;;;29.92;11.48;;;;;;;2.06;100.00;101432.34;4995487;28;20478;-68
2020/12/18 02:00:07;;;;;;;19.60;11.07;;;;;;;2.08;100.00;101438.41;4995191;28;20104;-68
2020/12/18 02:02:51;;;;;;;41.05;12.35;;;;;;;2.07;100.00;101428.81;4995449;28;20514;-67
2020/12/18 02:05:35;;;;;;;24.40;10.32;;;;;;;2.00;100.00;101445.78;4995427;28;20058;-67
2020/12/18 02:08:19;;;;;;;17.10;10.50;;;;;;;1.96;100.00;101436.28;4995353;28;20048;-68
2020/12/18 02:11:03;;;;;;;39.63;11.82;;;;;;;1.88;100.00;101432.25;4994304;28;20117;-67
2020/12/18 02:13:53;;;;;;;37.67;10.95;;;;;;;1.77;100.00;101430.03;4995090;28;20113;-68
2020/12/18 02:16:36;;;;;;;21.48;10.70;;;;;;;1.68;100.00;101430.41;4980188;28;20046;-68
2020/12/18 02:19:28;;;;;;;14.23;10.48;;;;;;;1.64;100.00;101431.47;4993893;28;20100;-68
2020/12/18 02:22:18;;;;;;;17.33;10.55;;;;;;;1.58;100.00;101426.44;4995073;28;20415;-67
2020/12/18 02:25:06;;;;;;;17.10;10.48;;;;;;;1.53;100.00;101424.91;4993720;28;20045;-68
2020/12/18 02:27:50;;;;;;;16.38;10.43;;;;;;;1.45;100.00;101422.56;4994902;28;20065;-68
2020/12/18 02:30:34;;;;;;;;;;;;;;;1.41;100.00;101423.63;4994391;28;20112;-66
2020/12/18 02:33:18;;;;;;;14.90;10.00;;;;;;;1.38;100.00;101423.75;4994638;28;20365;-69
2020/12/18 02:36:03;;;;;;;14.80;9.90;;;;;;;1.32;100.00;101418.72;4994771;28;20049;-67
2020/12/18 02:38:47;;;;;;;13.90;9.73;;;;;;;1.29;100.00;101421.47;4980040;28;20105;-67
2020/12/18 02:41:32;;;;;;;15.07;10.40;;;;;;;1.26;100.00;101421.56;4994686;28;20130;-67
2020/12/18 02:44:15;;;;;;;13.43;9.82;;;;;;;1.23;100.00;101423.47;4979902;28;20105;-68
2020/12/18 02:46:59;;;;;;;14.27;10.02;;;;;;;1.18;100.00;101413.16;4979911;28;20466;-68
2020/12/18 02:49:44;;;;;;;13.55;9.57;;;;;;;1.15;100.00;101407.16;4993652;28;20057;-67
2020/12/18 02:52:28;;;;;;;17.60;10.68;;;;;;;1.09;100.00;101405.59;4979907;28;20085;-67
2020/12/18 02:55:12;;;;;;;14.77;9.85;;;;;;;1.07;100.00;101402.16;4994480;28;20410;-67
2020/12/18 02:57:56;;;;;;;13.65;9.60;;;;;;;1.05;100.00;101403.16;4994352;28;20101;-67
2020/12/18 03:00:40;;;;;;;12.75;9.18;;;;;;;1.03;100.00;101403.19;4994400;28;20053;-68
2020/12/18 03:03:24;;;;;;;21.35;9.90;;;;;;;0.97;100.00;101408.69;4979487;28;20450;-68
2020/12/18 03:06:09;;;;;;;14.15;10.18;;;;;;;0.95;100.00;101405.25;4979334;28;20421;-68
2020/12/18 03:08:53;;;;;;;14.38;9.73;;;;;;;0.94;100.00;101403.53;4993394;28;20089;-67
2020/12/18 03:11:37;;;;;;;;;;;;;;;0.91;100.00;101400.16;4979894;28;20069;-68
2020/12/18 03:14:21;;;;;;;11.90;8.23;;;;;;;0.86;100.00;101400.31;4965654;28;19921;-67
2020/12/18 03:17:05;;;;;;;13.18;9.45;;;;;;;0.85;100.00;101398.63;4979249;28;20700;-67
2020/12/18 03:19:49;;;;;;;14.98;10.07;;;;;;;0.82;100.00;101406.63;4994145;28;20069;-68
2020/12/18 03:22:36;;;;;;;14.05;9.73;;;;;;;0.81;100.00;101399.66;4994445;28;20129;-67
2020/12/18 03:25:20;;;;;;;12.82;9.10;;;;;;;0.77;100.00;101399.81;4979036;28;20052;-67
2020/12/18 03:28:04;;;;;;;14.50;9.75;;;;;;;0.72;100.00;101396.53;4994136;28;20092;-67
2020/12/18 03:30:48;;;;;;;13.70;9.15;;;;;;;0.68;100.00;101408.91;4994103;28;20196;-68
2020/12/18 03:33:33;;;;;;;14.98;9.13;;;;;;;0.66;100.00;101396.72;4979386;28;20089;-68
2020/12/18 03:36:17;;;;;;;13.98;9.50;;;;;;;0.63;100.00;101397.69;4994322;28;20053;-68
2020/12/18 03:39:00;;;;;;;12.18;8.75;;;;;;;0.63;100.00;101397.69;4993756;28;20077;-68
2020/12/18 03:41:44;;;;;;;14.75;10.15;;;;;;;0.64;100.00;101388.91;4998033;28;20526;-68
2020/12/18 03:44:28;;;;;;;14.18;9.70;;;;;;;0.64;100.00;101399.41;4996793;28;20581;-67
2020/12/18 03:47:12;;;;;;;14.43;8.77;;;;;;;0.66;100.00;101405.44;4983117;28;20132;-67
2020/12/18 03:49:56;;;;;;;11.48;8.68;;;;;;;0.63;100.00;101402.94;4982953;28;20053;-68
2020/12/18 03:52:40;;;;;;;18.50;11.25;;;;;;;0.63;100.00;101400.31;4969444;28;20058;-68
2020/12/18 03:55:24;;;;;;;13.38;10.23;;;;;;;0.65;100.00;101401.13;4997850;28;20462;-68
2020/12/18 03:58:10;;;;;;;13.13;8.45;;;;;;;0.64;100.00;101411.69;4997506;28;20109;-66
2020/12/18 04:00:53;;;;;;;12.57;8.98;;;;;;;0.58;100.00;101401.41;4997561;28;20050;-68
2020/12/18 04:03:38;;;;;;;11.98;8.43;;;;;;;0.57;100.00;101400.56;4982774;28;20096;-66
2020/12/18 04:06:22;;;;;;;13.50;8.65;;;;;;;0.55;100.00;101409.38;4997477;28;20093;-68
2020/12/18 04:09:06;;;;;;;10.60;7.95;;;;;;;0.51;100.00;101395.50;4997291;28;20054;-66
2020/12/18 04:11:50;;;;;;;12.57;9.27;;;;;;;0.52;100.00;101394.59;4982826;28;20502;-68
2020/12/18 04:14:34;;;;;;;13.52;9.02;;;;;;;0.52;100.00;101393.75;4982442;28;20085;-68
2020/12/18 04:17:18;;;;;;;11.30;8.38;;;;;;;0.50;100.00;101391.19;4969100;28;20107;-67
2020/12/18 04:20:03;;;;;;;14.43;9.50;;;;;;;0.48;100.00;101397.38;4982245;28;20101;-68
2020/12/18 04:22:46;;;;;;;12.73;9.65;;;;;;;0.47;100.00;101380.81;4968897;28;20173;-68
2020/12/18 04:25:30;;;;;;;14.30;8.88;;;;;;;0.46;100.00;101381.72;4997023;28;20040;-68
2020/12/18 04:28:14;;;;;;;13.32;9.57;;;;;;;0.45;100.00;101382.59;4982247;28;20080;-67
2020/12/18 04:30:59;;;;;;;17.65;10.80;;;;;;;0.45;100.00;101382.59;4982480;28;20127;-68
2020/12/18 04:33:44;;;;;;;17.00;10.77;;;;;;;0.46;100.00;101388.72;4996839;28;20048;-67
2020/12/18 04:36:28;;;;;;;15.88;9.50;;;;;;;0.46;100.00;101379.09;4997343;28;20105;-67
2020/12/18 04:39:12;;;;;;;14.45;9.52;;;;;;;0.46;100.00;101383.47;4982261;28;20053;-67
2020/12/18 04:41:56;;;;;;;16.67;10.23;;;;;;;0.39;100.00;101381.97;4982270;28;20052;-68
2020/12/18 04:44:40;;;;;;;12.07;9.45;;;;;;;0.35;100.00;101385.63;4981969;28;20076;-68
2020/12/18 04:47:24;;;;;;;12.98;9.38;;;;;;;0.27;100.00;101383.28;4982164;28;20057;-67
2020/12/18 04:50:08;;;;;;;13.70;9.90;;;;;;;0.28;100.00;101389.34;4981770;28;20053;-68
2020/12/18 04:52:56;;;;;;;15.05;9.75;;;;;;;0.20;100.00;101384.38;4980878;28;20080;-67
2020/12/18 04:55:43;;;;;;;16.85;11.40;;;;;;;0.22;100.00;101390.41;4981598;28;20061;-68
2020/12/18 04:58:27;;;;;;;17.20;11.60;;;;;;;0.20;100.00;101380.88;4996479;28;20061;-67
2020/12/18 05:01:11;;;;;;;;;;;;;;;0.17;100.00;101379.25;4995977;28;20462;-67
2020/12/18 05:03:57;;;;;;;12.77;9.23;;;;;;;0.12;100.00;101391.63;4981738;28;19920;-67
2020/12/18 05:06:41;;;;;;;15.73;10.82;;;;;;;0.12;100.00;101388.19;4981722;28;20267;-67
2020/12/18 05:09:26;;;;;;;14.57;10.38;;;;;;;0.13;100.00;101392.50;4981837;28;20054;-67
2020/12/18 05:12:10;;;;;;;17.05;10.90;;;;;;;0.14;100.00;101381.94;4996431;28;20545;-68
2020/12/18 05:14:55;;;;;;;13.18;9.90;;;;;;;0.12;100.00;101383.78;5023868;23;20138;-67
2020/12/18 05:17:39;;;;;;;15.52;10.88;;;;;;;0.11;100.00;101376.81;5000934;28;20096;-67
2020/12/18 05:20:24;;;;;;;16.85;10.38;;;;;;;0.08;100.00;101374.31;5000994;28;20153;-67
2020/12/18 05:23:09;;;;;;;12.95;9.95;;;;;;;0.07;100.00;101377.84;5001005;28;20196;-67
2020/12/18 05:25:53;;;;;;;15.15;10.77;;;;;;;0.07;100.00;101375.22;4986949;28;20052;-66
2020/12/18 05:28:44;;;;;;;14.75;10.68;;;;;;;0.08;100.00;101383.94;5015711;28;20096;-67
2020/12/18 05:31:29;;;;;;;15.98;10.73;;;;;;;0.10;100.00;101382.97;5015369;28;20096;-67
2020/12/18 05:34:14;;;;;;;15.95;10.50;;;;;;;0.09;100.00;101383.03;5015585;28;20068;-67
2020/12/18 05:37:00;;;;;;;12.50;10.00;;;;;;;0.06;100.00;101385.75;5015615;28;20049;-67
2020/12/18 05:39:44;;;;;;;11.82;8.98;;;;;;;0.03;100.00;101388.50;5000513;28;20465;-66
2020/12/18 05:42:28;;;;;;;12.43;9.30;;;;;;;0.00;100.00;101389.44;5015647;28;20049;-67
2020/12/18 05:45:18;;;;;;;12.60;9.00;;;;;;;-0.02;100.00;101388.66;5014993;28;20124;-67
2020/12/18 05:48:03;;;;;;;14.93;10.85;;;;;;;-0.02;100.00;101396.50;4986637;28;20099;-67
2020/12/18 05:50:46;;;;;;;13.75;10.43;;;;;;;0.00;100.00;101392.06;5000386;28;20048;-67
2020/12/18 05:53:30;;;;;;;14.65;10.25;;;;;;;0.01;100.00;101385.06;5015189;28;20056;-66
2020/12/18 05:56:32;;;;;;;15.13;10.93;;;;;;;-0.01;100.00;101387.72;5000060;28;20129;-66
2020/12/18 05:59:20;;;;;;;14.80;10.65;;;;;;;-0.03;100.00;101384.31;5014889;28;20103;-67
2020/12/18 06:02:09;;;;;;;14.45;10.93;;;;;;;-0.03;100.00;101386.94;4999989;28;20109;-67
2020/12/18 06:04:56;;;;;;;15.38;10.48;;;;;;;-0.04;100.00;101391.38;5000267;28;20562;-65
2020/12/18 06:07:40;;;;;;;13.50;10.02;;;;;;;-0.06;100.00;101394.03;5000282;28;20057;-67
2020/12/18 06:10:24;;;;;;;;;;;;;;;-0.08;100.00;101393.22;5000620;28;20049;-67
2020/12/18 06:13:08;;;;;;;17.08;11.13;;;;;;;-0.07;100.00;101390.53;4986066;28;19920;-67
2020/12/18 06:15:53;;;;;;;15.93;11.70;;;;;;;-0.07;100.00;101393.16;5014538;28;20531;-66
2020/12/18 06:18:38;;;;;;;;;;;;;;;0.01;100.00;101392.94;4986724;28;20048;-67
2020/12/18 06:21:22;;;;;;;16.08;11.95;;;;;;;0.00;100.00;101394.69;4999538;28;20448;-67
2020/12/18 06:24:08;;;;;;;20.55;12.75;;;;;;;0.05;100.00;101399.78;5014329;28;20092;-67
2020/12/18 06:26:53;;;;;;;18.83;13.35;;;;;;;0.07;100.00;101393.59;5014260;28;20104;-67
2020/12/18 06:29:37;;;;;;;18.65;12.20;;;;;;;0.13;100.00;101405.63;4986220;28;20099;-67
2020/12/18 06:32:24;;;;;;;19.05;12.23;;;;;;;0.15;100.00;101402.06;4999639;28;20045;-67
2020/12/18 06:35:35;;;;;;;19.45;11.15;;;;;;;0.17;100.00;101402.84;5014437;28;20418;-67
2020/12/18 06:38:19;;;;;;;32.25;12.98;;;;;;;0.19;100.00;101411.50;4999806;28;20044;-67
2020/12/18 06:41:21;;;;;;;35.92;13.38;;;;;;;0.29;100.00;101412.91;5014037;28;20049;-66
2020/12/18 06:44:05;;;;;;;22.63;13.52;;;;;;;0.25;100.00;101406.03;4999652;28;20406;-67
2020/12/18 06:47:08;;;;;;;17.67;12.10;;;;;;;0.28;100.00;101405.97;5014037;28;20048;-67
2020/12/18 06:49:58;;;;;;;19.67;12.82;;;;;;;0.28;100.00;101405.97;5014048;28;20053;-67
2020/12/18 06:52:47;;;;;;;20.00;13.35;;;;;;;0.28;100.00;101410.34;5014003;28;20103;-67
2020/12/18 06:55:31;;;;;;;19.65;12.95;;;;;;;0.28;100.00;101411.19;5014027;28;20430;-67
2020/12/18 06:58:19;;;;;;;17.42;11.77;;;;;;;0.31;100.00;101407.63;5013878;28;20140;-67
2020/12/18 07:01:03;;;;;;;20.83;12.93;;;;;;;0.35;100.00;101402.19;4999108;28;20100;-66
2020/12/18 07:03:48;;;;;;;;;;;;;;;0.37;100.00;101400.41;5014514;28;20414;-67
2020/12/18 07:06:33;;;;;;;;;;;;;;;0.37;100.00;101408.28;5014353;28;20338;-66
2020/12/18 07:09:19;;;;;;;25.90;11.57;;;;;;;0.40;100.00;101404.66;5014005;28;19924;-67
2020/12/18 07:12:03;;;;;;;19.45;11.52;;;;;;;0.34;100.00;101407.50;4998748;28;20398;-67
2020/12/18 07:14:50;;;;;;;;;;;;;;;0.31;100.00;101405.84;4998451;28;20044;-67
2020/12/18 07:17:35;;;;;;;20.23;11.30;;;;;;;0.35;100.00;101403.97;5013756;28;19920;-66
2020/12/18 07:20:19;;;;;;;20.38;12.48;;;;;;;0.38;100.00;101407.34;4998837;28;20053;-67
2020/12/18 07:23:03;;;;;;;17.02;11.65;;;;;;;0.44;100.00;101401.88;5013545;28;20050;-66
2020/12/18 07:25:47;;;;;;;15.73;10.85;;;;;;;0.48;100.00;101406.13;4998830;28;20048;-66
2020/12/18 07:28:35;;;;;;;20.67;11.25;;;;;;;0.50;100.00;101396.44;4998637;28;20052;-66
2020/12/18 07:31:22;;;;;;;17.60;11.02;;;;;;;0.53;100.00;101396.31;4999335;28;20041;-67
2020/12/18 07:34:06;;;;;;;17.90;10.68;;;;;;;0.57;100.00;101392.69;4998868;28;20099;-67
2020/12/18 07:36:50;;;;;;;;;;;;;;;0.59;100.00;101401.34;4999208;28;20057;-67
2020/12/18 07:39:34;;;;;;;17.85;10.85;;;;;;;0.59;100.00;101396.09;4985080;28;19975;-67
2020/12/18 07:42:19;;;;;;;18.35;11.82;;;;;;;0.63;100.00;101395.06;5013348;28;20415;-67
2020/12/18 07:45:07;;;;;;;12.80;9.52;;;;;;;0.59;100.00;101396.09;4998409;28;20044;-67
2020/12/18 07:47:51;;;;;;;18.10;11.07;;;;;;;0.60;100.00;101402.19;5013554;28;20136;-67
2020/12/18 07:50:35;;;;;;;18.25;11.13;;;;;;;0.64;100.00;101409.91;4998534;28;20423;-67
2020/12/18 07:53:20;;;;;;;18.88;11.80;;;;;;;0.72;100.00;101402.63;4998647;28;20049;-66
2020/12/18 07:56:08;;;;;;;21.00;11.32;;;;;;;0.76;100.00;101413.88;5013075;28;20103;-67
2020/12/18 07:59:04;;;;;;;24.60;11.20;;;;;;;0.82;100.00;101413.66;4998224;28;20057;-67
2020/12/18 08:01:48;;;;;;;16.55;9.68;;;;;;;0.84;100.00;101411.81;4999436;28;20088;-66
2020/12/18 08:04:31;;;;;;;;;;;;;;;0.82;100.00;101411.88;4985163;28;20127;-67
2020/12/18 08:07:20;;;;;;;19.17;10.87;;;;;;;0.80;100.00;101416.31;5013344;28;19924;-67
2020/12/18 08:10:04;;;;;;;18.98;10.25;;;;;;;0.82;100.00;101414.50;5013082;28;20049;-66
2020/12/18 08:12:49;;;;;;;21.92;9.60;;;;;;;0.89;100.00;101412.50;4998457;28;20104;-66
2020/12/18 08:15:34;;;;;;;21.15;11.02;;;;;;;0.94;100.00;101413.19;5012885;28;20518;-67
2020/12/18 08:18:18;;;;;;;26.40;10.77;;;;;;;1.03;100.00;101412.88;5013026;28;20056;-67
2020/12/18 08:21:02;;;;;;;18.60;10.15;;;;;;;1.08;100.00;101411.78;4998009;28;20518;-67
2020/12/18 08:23:50;;;;;;;12.73;9.10;;;;;;;1.17;100.00;101405.31;4984634;28;20068;-67
2020/12/18 08:26:44;;;;;;;14.27;9.20;;;;;;;1.28;100.00;101414.50;5000069;28;20458;-66
2020/12/18 08:29:31;;;;;;;12.00;8.68;;;;;;;1.40;100.00;101423.66;5001782;28;20053;-66
2020/12/18 08:32:22;;;;;;;15.18;9.43;;;;;;;1.54;100.00;101427.47;5002171;28;20496;-67
2020/12/18 08:35:07;;;;;;;17.95;10.27;;;;;;;1.67;100.00;101426.06;5016385;28;20466;-66
2020/12/18 08:37:52;;;;;;;13.20;8.98;;;;;;;1.78;100.00;101430.91;5002106;28;20056;-67
2020/12/18 08:40:42;;;;;;;43.05;11.93;;;;;;;1.84;100.00;101434.16;5016614;28;20045;-66
2020/12/18 08:43:27;;;;;;;27.52;11.38;;;;;;;1.98;100.00;101423.91;5001997;28;20107;-67
2020/12/18 08:46:11;;;;;;;41.58;10.25;;;;;;;1.89;100.00;101437.47;5016461;28;20044;-67
2020/12/18 08:48:55;;;;;;;114.03;13.95;;;;;;;1.94;100.00;101438.13;5001635;28;20052;-66
2020/12/18 08:51:40;;;;;;;80.82;12.25;;;;;;;1.81;100.00;101431.66;5001326;28;20041;-66
2020/12/18 08:54:35;;;;;;;112.97;12.82;;;;;;;1.97;100.00;101434.53;5016284;28;20100;-66
2020/12/18 08:57:27;;;;;;;19.35;9.95;;;;;;;1.96;100.00;101444.16;5016059;28;20045;-67
2020/12/18 09:00:15;;;;;;;23.20;9.10;;;;;;;2.06;100.00;101442.88;5001083;28;20560;-66
2020/12/18 09:03:01;;;;;;;24.98;8.73;;;;;;;2.12;100.00;101445.28;5015957;28;20133;-66
2020/12/18 09:05:45;;;;;;;22.38;9.30;;;;;;;2.22;100.00;101435.22;5015783;28;20201;-66
2020/12/18 09:08:29;;;;;;;12.20;8.65;;;;;;;2.26;100.00;101445.53;5001285;28;20048;-66
2020/12/18 09:11:22;;;;;;;13.77;7.70;;;;;;;2.26;100.00;101437.66;5015888;28;20084;-66
2020/12/18 09:14:06;;;;;;;24.58;8.63;;;;;;;2.24;100.00;101436.88;5016003;28;20192;-66
2020/12/18 09:16:53;;;;;;;36.75;9.25;;;;;;;2.08;100.00;101432.31;5001098;28;20069;-67
2020/12/18 09:19:46;;;;;;;21.05;7.78;;;;;;;2.10;100.00;101433.09;4987423;28;20084;-66
2020/12/18 09:22:29;;;;;;;12.73;8.65;;;;;;;2.10;100.00;101433.97;5001279;28;20045;-66
2020/12/18 09:25:13;;;;;;;21.15;8.20;;;;;;;2.34;100.00;101435.56;5015579;28;20566;-66
2020/12/18 09:27:58;;;;;;;21.17;8.43;;;;;;;2.61;100.00;101432.59;4987420;28;20068;-66
2020/12/18 09:30:49;;;;;;;49.28;8.18;;;;;;;2.89;100.00;101432.25;4986844;28;20045;-66
2020/12/18 09:33:37;;;;;;;25.38;7.93;;;;;;;2.89;100.00;101430.47;5000708;28;20045;-66
2020/12/18 09:36:21;;;;;;;26.88;8.65;;;;;;;3.04;100.00;101424.50;5015245;28;20501;-67
2020/12/18 09:39:05;;;;;;;;;;;;;;;3.11;100.00;101425.06;5000438;28;20549;-66
2020/12/18 09:41:50;;;;;;;12.47;7.43;;;;;;;3.41;100.00;101416.63;5000398;28;19948;-66
2020/12/18 09:44:34;;;;;;;8.55;5.82;;;;;;;3.86;100.00;101411.78;5015349;28;20053;-66
2020/12/18 09:47:18;;;;;;;28.08;6.78;;;;;;;4.30;100.00;101414.88;5000521;28;20411;-66
2020/12/18 09:50:02;;;;;;;36.10;6.65;;;;;;;4.91;99.47;101416.06;5000488;28;20056;-66
2020/12/18 09:52:46;;;;;;;11.30;5.45;;;;;;;5.01;93.10;101418.16;5000493;28;20092;-66
2020/12/18 09:55:32;;;;;;;17.02;4.90;;;;;;;4.50;90.65;101412.06;5015019;28;20124;-66
2020/12/18 09:58:16;;;;;;;12.63;5.22;;;;;;;4.42;93.36;101420.41;5015018;28;20065;-66
2020/12/18 10:00:59;;;;;;;6.95;3.90;;;;;;;4.60;92.20;101414.19;5000268;28;20056;-66
2020/12/18 10:03:44;;;;;;;22.73;4.47;;;;;;;4.54;93.76;101414.47;5015096;28;20124;-67
2020/12/18 10:06:28;;;;;;;7.30;4.07;;;;;;;4.76;90.69;101411.59;4999910;28;20125;-67
2020/12/18 10:09:12;;;;;;;5.75;4.38;;;;;;;5.02;90.98;101407.47;5014934;28;20181;-66
2020/12/18 10:11:56;;;;;;;7.22;4.43;;;;;;;5.29;91.69;101416.56;5014589;28;20470;-66
2020/12/18 10:14:40;;;;;;;5.80;4.85;;;;;;;5.62;91.69;101406.78;5014416;28;20052;-67
2020/12/18 10:17:25;;;;;;;8.15;5.78;;;;;;;5.80;91.30;101410.19;4999968;28;20466;-66
2020/12/18 10:20:08;;;;;;;27.70;5.78;;;;;;;5.65;86.16;101414.53;5014695;28;20048;-66
2020/12/18 10:22:52;;;;;;;11.88;5.00;;;;;;;5.43;88.06;101398.16;5014535;28;20072;-66
2020/12/18 10:25:36;;;;;;;5.97;4.80;;;;;;;5.46;89.89;101395.31;4999824;28;20056;-66
2020/12/18 10:28:20;;;;;;;9.20;4.90;;;;;;;5.59;91.71;101401.66;4999802;28;20103;-67
2020/12/18 10:31:04;;;;;;;10.15;4.88;;;;;;;5.76;91.62;101387.47;4985953;28;20466;-67
2020/12/18 10:33:48;;;;;;;10.45;5.13;;;;;;;5.82;88.22;101390.66;5014292;28;20430;-66
2020/12/18 10:36:33;;;;;;;14.13;5.55;;;;;;;5.90;89.62;101391.09;5014516;28;20048;-66
2020/12/18 10:39:17;;;;;;;17.67;5.32;;;;;;;5.96;89.08;101377.47;4999320;28;20052;-66
2020/12/18 10:42:03;;;;;;;11.82;5.15;;;;;;;5.96;90.31;101368.69;5014067;28;20177;-66
2020/12/18 10:44:47;;;;;;;17.95;5.55;;;;;;;6.03;90.46;101368.25;5014323;28;20133;-66
2020/12/18 10:47:32;;;;;;;7.55;5.43;;;;;;;6.07;89.72;101364.47;5014398;28;20100;-66
2020/12/18 10:50:15;;;;;;;16.38;5.57;;;;;;;5.99;89.89;101365.88;5013962;28;20057;-67
2020/12/18 10:53:00;;;;;;;9.73;5.75;;;;;;;5.99;91.31;101356.16;5014506;28;20048;-66
2020/12/18 10:55:44;;;;;;;16.45;6.28;;;;;;;6.06;91.37;101365.41;4998976;28;20052;-66
2020/12/18 10:58:28;;;;;;;20.73;6.00;;;;;;;6.06;91.20;101357.47;4999255;28;20057;-66
2020/12/18 11:01:16;;;;;;;24.45;5.53;;;;;;;6.15;89.54;101356.94;5014022;28;20092;-68
2020/12/18 11:04:01;;;;;;;21.17;5.63;;;;;;;6.11;90.67;101354.56;5014023;28;20084;-66
2020/12/18 11:06:46;;;;;;;27.50;9.10;;;;;;;6.08;92.97;101342.38;5013938;28;20109;-67
2020/12/18 11:09:30;;;;;;;16.17;10.43;;;;;;;6.19;93.91;101342.59;5013947;28;20052;-65
2020/12/18 11:12:14;;;;;;;11.15;6.80;;;;;;;6.23;94.20;101341.47;5014005;28;20049;-65
2020/12/18 11:14:58;;;;;;;26.90;6.53;;;;;;;6.48;90.08;101333.72;5036462;22;20247;-67
2020/12/18 11:17:42;;;;;;;57.40;7.65;;;;;;;6.49;90.94;101330.16;4998846;28;20582;-63
2020/12/18 11:20:26;;;;;;;45.28;6.72;;;;;;;6.44;90.22;101326.94;5013382;28;20060;-65
2020/12/18 11:23:10;;;;;;;37.47;7.13;;;;;;;6.37;94.00;101325.59;4998892;28;20048;-65
2020/12/18 11:25:54;;;;;;;8.55;5.22;;;;;;;6.44;92.31;101321.63;4979159;28;20126;-65
2020/12/18 11:28:39;;;;;;;27.13;5.30;;;;;;;6.54;91.15;101317.47;4993794;28;20184;-65
2020/12/18 11:31:26;;;;;;;57.53;6.63;;;;;;;6.32;90.34;101317.06;4993746;28;20114;-65
2020/12/18 11:34:10;;;;;;;46.70;6.32;;;;;;;6.14;91.92;101318.16;4993803;28;20550;-64
2020/12/18 11:36:56;;;;;;;49.10;8.65;;;;;;;5.99;94.24;101312.94;4965359;28;20053;-66
2020/12/18 11:39:40;;;;;;;15.63;6.82;;;;;;;5.89;95.28;101307.34;4993692;28;20108;-65
2020/12/18 11:42:24;;;;;;;27.55;7.88;;;;;;;5.84;95.07;101308.56;4992554;28;20112;-64
2020/12/18 11:45:08;;;;;;;16.55;7.35;;;;;;;5.87;95.27;101303.06;4965395;28;20113;-64
2020/12/18 11:47:52;;;;;;;22.95;8.85;;;;;;;5.83;97.03;101312.97;4993617;28;20069;-65
2020/12/18 11:50:36;;;;;;;29.55;10.65;;;;;;;5.63;97.90;101309.75;4965471;28;20116;-67
2020/12/18 11:53:20;;;;;;;35.97;10.38;;;;;;;5.38;98.30;101305.00;4993780;28;20092;-64
2020/12/18 11:56:05;;;;;;;40.85;11.18;;;;;;;5.21;100.00;101313.03;4993521;28;20482;-66
2020/12/18 11:58:50;;;;;;;48.10;11.23;;;;;;;5.21;100.00;101296.28;4992505;28;20048;-65
2020/12/18 12:01:34;;;;;;;35.30;11.68;;;;;;;5.21;100.00;101294.53;4980935;28;20411;-64
2020/12/18 12:04:18;;;;;;;44.95;12.15;;;;;;;5.33;100.00;101285.91;4997722;28;20101;-64
2020/12/18 12:07:02;;;;;;;21.65;11.60;;;;;;;5.44;100.00;101287.94;4982644;28;20048;-64
2020/12/18 12:09:46;;;;;;;18.02;10.18;;;;;;;5.51;100.00;101289.28;4997356;28;20049;-64
2020/12/18 12:12:30;;;;;;;59.00;12.38;;;;;;;5.65;100.00;101284.06;4997230;28;20045;-64
2020/12/18 12:15:15;;;;;;;23.13;9.80;;;;;;;5.62;100.00;101277.16;4996143;28;20108;-64
2020/12/18 12:18:02;;;;;;;30.98;10.55;;;;;;;5.73;99.16;101280.03;4997155;28;20080;-63
2020/12/18 12:20:46;;;;;;;49.85;11.07;;;;;;;5.76;99.42;101269.25;4997024;28;20097;-65
2020/12/18 12:23:30;;;;;;;46.80;11.00;;;;;;;5.54;99.60;101266.16;4996054;28;20180;-67
2020/12/18 12:26:14;;;;;;;39.25;10.75;;;;;;;5.56;100.00;101271.38;4997223;28;20053;-64
2020/12/18 12:28:58;;;;;;;39.40;12.13;;;;;;;5.38;100.00;101278.56;4982558;28;20138;-64
2020/12/18 12:31:42;;;;;;;84.65;12.25;;;;;;;5.20;100.00;101266.38;4996566;28;20561;-63
2020/12/18 12:34:26;;;;;;;48.40;9.02;;;;;;;5.14;100.00;101264.06;4968590;28;20104;-64
2020/12/18 12:37:11;;;;;;;80.47;12.43;;;;;;;5.21;100.00;101260.16;4982355;28;20513;-66
2020/12/18 12:39:55;;;;;;;35.47;8.68;;;;;;;5.26;100.00;101255.47;4996783;28;20081;-64